Time;durP1;ratioP1;P1;durP2;ratioP2;P2;SDS_P1;SDS_P2;PMS_P1;PMS_P2;Temp;Humidity;BMP_temperature;BMP_pressure;BME280_temperature;BME280_humidity;BME280_pressure;Samples;Min_cycle;Max_cycle;Signal;HPM_P1;HPM_P2
2022/11/09 00:01:21;;;;;;;5.77;2.90;;;15.40;77.90;;;15.86;48.58;98315.72;4950873;28;114277;-76
2022/11/09 00:03:54;;;;;;;5.00;3.47;;;15.40;78.10;;;15.86;48.56;98312.13;4988713;28;123925;-73
2022/11/09 00:06:21;;;;;;;7.50;3.73;;;15.40;78.30;;;15.85;49.02;98305.75;4963665;28;123011;-74
2022/11/09 00:08:48;;;;;;;4.37;3.53;;;15.40;78.50;;;15.84;48.98;98301.31;4964110;28;115274;-74
2022/11/09 00:11:15;;;;;;;5.23;3.33;;;15.40;78.70;;;15.84;49.33;98308.88;4961299;28;115224;-74
2022/11/09 00:13:43;;;;;;;4.30;3.23;;;15.40;78.90;;;15.83;49.20;98310.06;4961432;28;124378;-73
2022/11/09 00:16:14;;;;;;;6.40;3.20;;;15.40;79.00;;;15.83;49.12;98304.47;4962787;28;123019;-75
2022/11/09 00:18:52;;;;;;;4.17;3.20;;;15.40;79.00;;;15.83;49.01;98313.66;4960261;28;114792;-76
2022/11/09 00:21:24;;;;;;;5.63;3.17;;;15.40;78.90;;;15.83;49.21;98302.50;4961473;28;114449;-76
2022/11/09 00:23:51;;;;;;;5.70;4.10;;;15.40;79.00;;;15.82;49.46;98297.28;4959724;28;124416;-75
2022/11/09 00:26:19;;;;;;;6.80;4.07;;;15.30;79.10;;;15.79;49.60;98296.03;4960387;28;123896;-74
2022/11/09 00:28:46;;;;;;;7.00;4.10;;;15.30;79.40;;;15.76;49.70;98290.38;4956811;28;115191;-76
2022/11/09 00:31:32;;;;;;;8.90;4.27;;;15.30;79.60;;;15.73;49.86;98296.66;4966544;28;114521;-75
2022/11/09 00:33:59;;;;;;;5.97;4.40;;;15.20;79.70;;;15.67;50.16;98296.91;4944663;28;123885;-75
2022/11/09 00:36:28;;;;;;;7.53;4.57;;;15.20;79.90;;;15.66;50.25;98294.47;4953898;28;124041;-75
2022/11/09 00:39:14;;;;;;;5.40;3.57;;;15.20;80.20;;;15.64;50.20;98296.81;4964545;28;114108;-76
2022/11/09 00:41:41;;;;;;;7.17;4.10;;;15.20;80.30;;;15.64;50.19;98303.19;4961763;28;112859;-77
2022/11/09 00:44:07;;;;;;;8.17;4.80;;;15.40;80.70;;;15.63;50.47;98289.59;4994736;28;123243;-74
2022/11/09 00:46:34;;;;;;;7.90;4.40;;;15.20;80.60;;;15.63;50.45;98300.75;4945292;28;124091;-72
2022/11/09 00:49:01;;;;;;;5.83;4.40;;;15.20;80.70;;;15.61;50.61;98286.41;4975810;28;114688;-74
2022/11/09 00:51:27;;;;;;;6.70;4.20;;;15.20;80.80;;;15.62;50.64;98296.34;4957726;28;114036;-75
2022/11/09 00:53:56;;;;;;;5.30;3.37;;;15.20;80.80;;;15.62;50.63;98290.78;4955874;28;124080;-75
2022/11/09 00:56:23;;;;;;;5.00;3.23;;;16.50;82.00;;;15.62;50.05;98282.44;4964623;28;123905;-75
2022/11/09 00:59:09;;;;;;;9.80;3.93;;;15.20;80.60;;;15.61;50.32;98283.63;4966335;28;115240;-75
2022/11/09 01:01:36;;;;;;;9.17;3.73;;;15.20;80.60;;;15.62;50.23;98283.22;4998294;28;116614;-75
2022/11/09 01:04:03;;;;;;;5.53;4.10;;;15.20;80.60;;;15.63;50.40;98276.50;4965116;28;124580;-76
2022/11/09 01:06:30;;;;;;;7.43;4.20;;;15.20;80.80;;;15.64;50.19;98291.25;4963539;28;124124;-74
2022/11/09 01:08:57;;;;;;;5.80;3.80;;;15.20;80.90;;;15.62;50.35;98286.03;4962885;28;114399;-74
2022/11/09 01:11:24;;;;;;;4.40;2.80;;;15.20;80.90;;;15.62;49.99;98291.59;4998619;28;114218;-76
2022/11/09 01:13:51;;;;;;;4.07;2.53;;;15.20;80.60;;;15.63;49.78;98292.41;4981676;28;123253;-74
2022/11/09 01:16:20;;;;;;;3.87;3.13;;;15.10;80.20;;;15.61;49.58;98295.56;4961650;28;122739;-74
2022/11/09 01:18:47;;;;;;;4.67;3.17;;;15.10;79.90;;;15.61;49.34;98300.31;4961997;28;114484;-73
2022/11/09 01:21:14;;;;;;;5.97;2.90;;;15.10;79.70;;;15.60;49.51;98299.50;4951013;28;114079;-74
2022/11/09 01:23:42;;;;;;;2.90;2.27;;;15.10;79.50;;;15.61;49.47;98303.09;4945311;28;124154;-77
2022/11/09 01:26:11;;;;;;;2.47;1.83;;;15.10;79.40;;;15.61;49.21;98301.13;4955485;28;123889;-76
2022/11/09 01:28:38;;;;;;;2.70;2.40;;;15.10;79.30;;;15.64;48.90;98299.59;4983140;28;113354;-73
2022/11/09 01:31:12;;;;;;;2.80;2.37;;;15.20;79.40;;;15.67;49.01;98307.22;4944198;28;114010;-75
2022/11/09 01:33:39;;;;;;;4.63;2.37;;;15.20;79.20;;;15.68;49.00;98298.53;4963688;28;124369;-77
2022/11/09 01:36:16;;;;;;;2.13;1.70;;;15.20;79.20;;;15.71;48.68;98299.00;4969737;28;122507;-76
2022/11/09 01:38:43;;;;;;;5.83;2.23;;;15.20;79.10;;;15.71;49.00;98302.56;4968943;28;114316;-76
2022/11/09 01:41:18;;;;;;;9.73;2.60;;;15.20;79.00;;;15.73;48.72;98303.03;4969336;28;113677;-76
2022/11/09 01:44:01;;;;;;;2.80;2.10;;;15.20;79.00;;;15.73;48.49;98291.91;4964317;28;123872;-76
2022/11/09 01:46:42;;;;;;;4.10;2.17;;;15.20;78.90;;;15.74;48.90;98293.50;4968407;28;123812;-76
2022/11/09 01:49:39;;;;;;;2.80;1.97;;;15.20;78.80;;;15.74;48.58;98292.69;4966233;28;115139;-75
2022/11/09 01:52:17;;;;;;;5.83;2.77;;;15.20;78.80;;;15.73;48.60;98288.31;4959195;28;114818;-75
2022/11/09 01:54:50;;;;;;;3.03;2.20;;;15.20;78.80;;;15.73;48.59;98279.94;4960476;28;124568;-76
2022/11/09 01:57:31;;;;;;;3.67;2.53;;;15.20;78.70;;;15.74;48.73;98292.69;4966661;28;124390;-79
2022/11/09 02:00:09;;;;;;;3.47;2.03;;;15.30;78.70;;;15.76;48.61;98290.38;4967775;28;113874;-76
2022/11/09 02:02:38;;;;;;;3.60;2.20;;;15.30;78.70;;;15.78;48.60;98288.03;4960105;28;113003;-78
2022/11/09 02:05:11;;;;;;;5.20;2.60;;;15.30;78.70;;;15.81;48.61;98292.88;4969117;28;123041;-76
2022/11/09 02:07:40;;;;;;;2.87;1.93;;;15.30;78.80;;;15.82;48.49;98289.72;4967122;28;123967;-77
2022/11/09 02:10:16;;;;;;;3.83;2.27;;;15.30;78.80;;;15.84;48.50;98286.59;4985482;28;113558;-77
2022/11/09 02:12:43;;;;;;;4.63;2.17;;;15.30;78.90;;;15.86;48.66;98284.25;4966856;28;113922;-77
2022/11/09 02:15:11;;;;;;;3.33;2.13;;;16.80;80.30;;;15.87;48.84;98289.47;4969622;28;123452;-75
2022/11/09 02:17:40;;;;;;;2.87;2.20;;;15.40;78.80;;;15.89;48.44;98295.47;4966564;28;123511;-75
2022/11/09 02:20:11;;;;;;;2.37;1.77;;;15.40;78.80;;;15.92;48.32;98287.59;4969724;28;113702;-76
2022/11/09 02:22:37;;;;;;;3.63;2.50;;;15.30;78.60;;;15.93;48.34;98286.41;4966380;28;114036;-75
2022/11/09 02:25:05;;;;;;;8.53;2.80;;;15.40;78.70;;;15.93;48.41;98290.00;4968329;28;123958;-75
2022/11/09 02:27:31;;;;;;;3.57;2.60;;;15.40;79.50;;;15.95;48.47;98289.63;4970399;28;123543;-75
2022/11/09 02:29:59;;;;;;;4.63;2.57;;;15.40;78.90;;;15.96;48.64;98285.69;4960298;28;113907;-75
2022/11/09 02:32:29;;;;;;;5.70;2.50;;;15.50;79.00;;;15.97;48.22;98287.31;4967028;28;113372;-76
2022/11/09 02:34:56;;;;;;;3.47;2.20;;;15.40;78.60;;;15.97;48.21;98285.31;4967398;28;124627;-75
2022/11/09 02:37:49;;;;;;;6.70;2.20;;;15.40;78.40;;;15.97;48.11;98302.03;4965911;28;124392;-78
2022/11/09 02:40:25;;;;;;;2.30;1.73;;;15.40;78.30;;;16.00;48.03;98300.53;4951785;28;115416;-75
2022/11/09 02:42:52;;;;;;;2.40;2.00;;;15.50;78.50;;;16.01;48.33;98299.34;4970446;28;114972;-76
2022/11/09 02:45:18;;;;;;;2.70;2.10;;;15.50;78.70;;;16.03;48.02;98306.16;4968881;28;124051;-81
2022/11/09 02:47:45;;;;;;;3.07;1.97;;;15.50;78.70;;;16.05;48.27;98314.97;4966986;28;123896;-75
2022/11/09 02:50:11;;;;;;;2.67;2.07;;;15.50;78.70;;;16.05;48.27;98314.97;4971155;28;116364;-76
2022/11/09 02:52:38;;;;;;;3.47;1.83;;;15.50;78.70;;;16.08;48.45;98319.03;4967567;28;113998;-79
2022/11/09 02:55:05;;;;;;;3.00;2.00;;;15.50;78.60;;;16.08;48.13;98325.41;4966620;28;123849;-75
2022/11/09 02:57:32;;;;;;;4.97;2.17;;;15.60;78.60;;;16.09;47.95;98329.00;4967050;28;123761;-76
2022/11/09 02:59:58;;;;;;;1.83;1.53;;;15.60;78.30;;;16.09;47.72;98326.22;4967620;28;114635;-77
2022/11/09 03:02:24;;;;;;;4.37;2.43;;;15.50;78.00;;;16.07;47.77;98326.59;4964823;28;113880;-76
2022/11/09 03:04:51;;;;;;;3.70;2.27;;;15.60;77.90;;;16.07;47.73;98329.38;4966334;28;124010;-75
2022/11/09 03:07:17;;;;;;;3.50;2.40;;;15.60;77.80;;;16.08;47.65;98341.31;4965163;28;124043;-77
2022/11/09 03:09:45;;;;;;;6.10;2.60;;;15.60;77.80;;;16.07;47.64;98334.16;4967615;28;114245;-75
2022/11/09 03:12:30;;;;;;;2.30;1.90;;;15.50;77.60;;;16.05;47.70;98347.63;4967510;28;114048;-77
2022/11/09 03:15:02;;;;;;;5.03;2.30;;;15.60;77.80;;;16.01;47.79;98341.97;4963361;28;123984;-75
2022/11/09 03:17:31;;;;;;;3.13;2.40;;;15.50;77.80;;;15.98;48.28;98339.88;4966856;28;124076;-75
2022/11/09 03:19:58;;;;;;;7.03;2.90;;;15.50;78.10;;;16.00;48.64;98339.53;4967767;28;113931;-75
2022/11/09 03:22:24;;;;;;;2.67;2.10;;;15.50;78.40;;;16.02;48.90;98348.34;4967916;28;114045;-76
2022/11/09 03:24:50;;;;;;;1.77;1.67;;;15.50;78.70;;;16.01;49.09;98350.31;4985439;28;124032;-75
2022/11/09 03:27:17;;;;;;;3.50;2.40;;;15.60;79.10;;;16.02;49.33;98353.91;4966962;28;123864;-75
2022/11/09 03:29:44;;;;;;;3.30;1.70;;;15.50;79.40;;;16.03;49.73;98356.31;4967091;28;115880;-75
2022/11/09 03:32:10;;;;;;;6.23;1.70;;;15.60;80.10;;;16.04;50.27;98354.34;4967596;28;114711;-75
2022/11/09 03:34:37;;;;;;;2.97;2.03;;;15.50;80.50;;;16.04;50.36;98351.56;4967825;28;124213;-76
2022/11/09 03:37:03;;;;;;;3.53;2.50;;;15.60;81.00;;;16.04;50.72;98354.34;4970263;28;123453;-76
2022/11/09 03:39:30;;;;;;;4.63;2.47;;;15.60;81.50;;;15.99;51.39;98360.22;4968066;28;114533;-74
2022/11/09 03:41:56;;;;;;;4.13;2.33;;;15.60;82.40;;;15.94;51.67;98363.25;4967094;28;114514;-75
2022/11/09 03:44:23;;;;;;;2.70;2.17;;;15.50;82.40;;;15.89;51.35;98364.34;4968355;28;123965;-75
2022/11/09 03:46:50;;;;;;;2.73;1.90;;;15.50;82.40;;;15.87;51.97;98363.88;4967533;28;123817;-77
2022/11/09 03:49:16;;;;;;;2.93;2.03;;;15.40;82.70;;;15.85;51.94;98361.47;4966958;28;114325;-75
2022/11/09 03:51:43;;;;;;;2.30;2.10;;;15.40;83.10;;;15.85;52.48;98355.06;4966936;28;114407;-75
2022/11/09 03:54:09;;;;;;;4.87;2.23;;;15.40;83.40;;;15.84;52.53;98354.25;4966095;28;124163;-75
2022/11/09 03:56:36;;;;;;;5.07;2.73;;;16.40;84.90;;;15.80;52.98;98353.38;4965325;28;123732;-74
2022/11/09 03:59:02;;;;;;;4.00;2.30;;;15.30;84.20;;;15.75;53.01;98356.41;4966903;28;114429;-76
2022/11/09 04:01:29;;;;;;;3.83;2.30;;;15.30;84.50;;;15.73;53.65;98355.97;4966381;28;114178;-74
2022/11/09 04:03:55;;;;;;;4.80;2.33;;;15.30;84.80;;;15.70;53.80;98359.47;4966791;28;123938;-74
2022/11/09 04:06:22;;;;;;;2.47;1.90;;;15.30;85.30;;;15.70;54.15;98361.44;4966026;28;124486;-75
2022/11/09 04:08:48;;;;;;;2.83;2.30;;;15.30;85.80;;;15.66;54.60;98352.94;4966169;28;115611;-77
2022/11/09 04:11:15;;;;;;;3.10;2.00;;;15.20;86.20;;;15.65;54.87;98357.72;4967450;28;114753;-74
2022/11/09 04:13:42;;;;;;;3.43;2.13;;;15.20;86.70;;;15.66;54.93;98364.09;4979959;28;122925;-74
2022/11/09 04:16:08;;;;;;;2.93;1.83;;;15.20;87.00;;;15.66;55.45;98364.09;4967693;28;122473;-75
2022/11/09 04:18:34;;;;;;;2.20;2.00;;;15.20;87.50;;;15.65;55.67;98368.03;4966185;28;115285;-76
2022/11/09 04:21:01;;;;;;;2.97;2.20;;;15.20;87.90;;;15.64;55.90;98375.59;4966803;28;115224;-74
2022/11/09 04:23:27;;;;;;;3.93;2.57;;;15.20;88.40;;;15.64;56.18;98372.00;4964049;28;124096;-74
2022/11/09 04:25:57;;;;;;;3.50;2.50;;;15.20;88.80;;;15.62;56.62;98386.28;4966786;28;124272;-74
2022/11/09 04:28:24;;;;;;;3.47;2.40;;;15.20;89.40;;;15.59;56.73;98387.00;4951686;28;113421;-77
2022/11/09 04:30:51;;;;;;;4.77;2.00;;;15.20;89.80;;;15.59;56.96;98388.97;4967223;28;114095;-74
2022/11/09 04:33:17;;;;;;;5.10;2.07;;;15.10;90.00;;;15.58;56.67;98390.13;4965228;28;124055;-74
2022/11/09 04:35:44;;;;;;;2.50;1.80;;;15.10;90.00;;;15.56;56.94;98395.25;4939823;28;123698;-75
2022/11/09 04:38:13;;;;;;;2.77;2.10;;;15.10;90.10;;;15.56;57.05;98398.03;4962127;28;114019;-74
2022/11/09 04:40:39;;;;;;;6.57;3.57;;;15.10;90.30;;;15.57;57.31;98394.09;4976112;28;113923;-74
2022/11/09 04:43:12;;;;;;;3.23;2.10;;;15.10;90.40;;;15.56;57.63;98392.47;4950609;28;123127;-75
2022/11/09 04:45:38;;;;;;;4.57;2.30;;;15.10;90.60;;;15.54;57.75;98394.78;4966282;28;124273;-74
2022/11/09 04:48:06;;;;;;;5.50;2.80;;;15.00;90.70;;;15.52;58.09;98380.41;4965170;28;114058;-74
2022/11/09 04:50:33;;;;;;;5.50;2.93;;;15.00;90.90;;;15.51;58.45;98378.81;4962011;28;113785;-74
2022/11/09 04:53:12;;;;;;;4.93;2.90;;;15.00;91.00;;;15.50;58.64;98377.16;4970072;28;123233;-74
2022/11/09 04:56:00;;;;;;;4.10;3.00;;;15.00;91.20;;;15.45;58.67;98373.50;4953554;28;124440;-74
2022/11/09 04:58:26;;;;;;;3.97;2.37;;;15.00;91.30;;;15.42;58.79;98360.28;4927128;28;114594;-77
2022/11/09 05:00:53;;;;;;;5.20;2.70;;;15.00;91.40;;;15.40;59.25;98362.59;4911845;28;113888;-75
2022/11/09 05:03:20;;;;;;;8.83;3.50;;;14.90;91.60;;;15.39;59.45;98354.59;4925915;28;123999;-75
2022/11/09 05:05:47;;;;;;;8.43;4.33;;;14.90;91.70;;;15.37;59.41;98366.09;4923821;28;123965;-78
2022/11/09 05:08:13;;;;;;;4.17;2.60;;;14.90;91.80;;;15.33;59.51;98359.63;4908130;28;115113;-75
2022/11/09 05:10:40;;;;;;;6.17;3.30;;;14.90;92.00;;;15.32;59.91;98365.56;4929980;28;115068;-77
2022/11/09 05:13:10;;;;;;;4.70;3.00;;;14.90;92.10;;;15.29;60.21;98364.28;4914880;28;122908;-75
2022/11/09 05:15:37;;;;;;;6.57;3.90;;;14.90;92.30;;;15.27;60.39;98377.75;4926961;28;123001;-74
2022/11/09 05:18:05;;;;;;;7.60;3.70;;;14.80;92.40;;;15.25;60.56;98372.50;4914023;28;113353;-75
2022/11/09 05:20:33;;;;;;;6.30;3.80;;;14.80;92.60;;;15.23;60.67;98376.81;4912037;28;114600;-75
2022/11/09 05:25:46;;;;;;;7.00;3.50;;;14.80;92.90;;;15.15;60.99;98366.63;4917260;28;124388;-74
2022/11/09 05:28:13;;;;;;;7.37;3.90;;;14.70;93.00;;;15.15;61.22;98366.63;4912410;28;114213;-74
2022/11/09 05:30:39;;;;;;;7.07;4.17;;;14.70;93.10;;;15.14;61.24;98368.63;4915015;28;112888;-74
2022/11/09 05:33:06;;;;;;;6.30;4.10;;;14.70;93.10;;;15.12;61.41;98357.03;4911505;28;123995;-76
2022/11/09 05:35:33;;;;;;;6.67;4.20;;;14.60;93.20;;;15.10;61.49;98356.59;4944476;28;123585;-73
2022/11/09 05:37:59;;;;;;;8.67;4.43;;;14.60;93.30;;;15.07;61.71;98340.59;4970866;28;114286;-74
2022/11/09 05:40:26;;;;;;;6.60;4.20;;;14.60;93.40;;;15.04;61.50;98344.06;4970403;28;114082;-74
2022/11/09 05:42:54;;;;;;;7.73;3.90;;;14.50;93.50;;;15.01;61.72;98356.72;4986433;28;123145;-75
2022/11/09 05:45:21;;;;;;;5.83;3.67;;;14.60;93.60;;;14.98;61.97;98349.06;4970930;28;123791;-75
2022/11/09 05:47:47;;;;;;;6.27;4.17;;;14.50;93.70;;;14.97;62.08;98350.25;5000456;28;114600;-75
2022/11/09 05:50:15;;;;;;;4.83;3.80;;;14.50;93.70;;;14.95;62.18;98355.34;4972529;28;114410;-75
2022/11/09 05:52:42;;;;;;;8.23;4.90;;;14.50;93.80;;;14.94;62.28;98350.97;4968327;28;124253;-76
2022/11/09 05:55:08;;;;;;;6.57;4.23;;;14.50;93.90;;;14.90;62.40;98352.00;4970814;28;123774;-75
2022/11/09 05:57:35;;;;;;;9.23;3.80;;;14.40;94.00;;;14.86;62.68;98345.53;4970669;28;115207;-77
2022/11/09 06:00:03;;;;;;;5.17;3.67;;;14.40;94.10;;;14.82;62.64;98345.41;4969776;28;114800;-76
2022/11/09 06:02:31;;;;;;;5.53;3.60;;;14.30;94.10;;;14.80;62.74;98344.97;4970240;28;123842;-75
2022/11/09 06:04:58;;;;;;;5.63;3.60;;;15.00;94.60;;;14.77;62.67;98343.69;4968495;28;124460;-75
2022/11/09 06:07:25;;;;;;;8.33;4.70;;;14.30;94.30;;;14.78;62.80;98350.09;4971469;28;115019;-75
2022/11/09 06:09:51;;;;;;;7.30;4.27;;;14.30;94.40;;;14.76;63.25;98355.19;4959883;28;114132;-74
2022/11/09 06:12:18;;;;;;;5.57;3.93;;;14.30;94.70;;;14.73;63.07;98353.09;4966130;28;124280;-74
2022/11/09 06:14:44;;;;;;;7.40;3.90;;;14.20;94.60;;;14.67;63.16;98348.94;4956198;28;124392;-75
2022/11/09 06:17:11;;;;;;;5.10;3.70;;;14.20;94.70;;;14.61;63.36;98365.03;4971916;28;113304;-75
2022/11/09 06:19:37;;;;;;;8.23;4.20;;;14.10;94.70;;;14.61;63.45;98367.00;4959875;28;114094;-75
2022/11/09 06:22:04;;;;;;;4.80;3.50;;;14.10;94.70;;;14.61;63.37;98370.59;4963620;28;125772;-76
2022/11/09 06:24:30;;;;;;;6.23;3.70;;;14.10;94.70;;;14.63;63.37;98378.59;4977214;28;124069;-75
2022/11/09 06:26:56;;;;;;;6.60;4.03;;;14.10;94.80;;;14.65;63.28;98388.22;4966844;28;114286;-75
2022/11/09 06:29:23;;;;;;;8.80;4.50;;;14.20;94.90;;;14.67;63.70;98385.06;4965026;28;114470;-75
2022/11/09 06:31:50;;;;;;;7.73;4.20;;;14.20;94.90;;;14.71;63.76;98386.81;4966056;28;124124;-75
2022/11/09 06:34:16;;;;;;;5.10;3.10;;;14.30;95.10;;;14.76;63.68;98388.56;4970467;28;124229;-75
2022/11/09 06:36:43;;;;;;;6.77;3.47;;;14.20;95.10;;;14.81;63.57;98393.88;4967208;28;114031;-75
2022/11/09 06:39:10;;;;;;;9.30;4.40;;;14.30;95.30;;;14.83;63.60;98391.56;4968498;28;113917;-74
2022/11/09 06:41:36;;;;;;;6.83;4.07;;;14.30;95.20;;;14.83;63.47;98394.34;4967591;28;123821;-74
2022/11/09 06:44:04;;;;;;;6.10;3.70;;;14.30;95.20;;;14.82;63.64;98403.81;4968430;28;124258;-74
2022/11/09 06:46:31;;;;;;;6.47;4.10;;;14.30;95.20;;;14.81;63.59;98396.66;4967879;28;115121;-73
2022/11/09 06:48:58;;;;;;;5.57;3.67;;;14.30;95.20;;;14.80;63.47;98395.03;4953508;28;114112;-72
2022/11/09 06:51:25;;;;;;;10.60;4.70;;;14.30;95.20;;;14.80;63.44;98401.41;5002724;28;124136;-76
2022/11/09 06:53:52;;;;;;;6.93;4.97;;;14.30;95.20;;;14.81;63.38;98407.78;4966155;28;124530;-73
2022/11/09 06:56:19;;;;;;;13.07;4.90;;;14.30;95.20;;;14.79;63.41;98415.66;4968669;28;114764;-75
2022/11/09 06:58:45;;;;;;;6.80;4.77;;;14.30;95.20;;;14.78;63.66;98414.06;4951995;28;113731;-75
2022/11/09 07:01:17;;;;;;;6.83;4.20;;;14.30;95.20;;;14.77;63.36;98410.44;4968316;28;124352;-76
2022/11/09 07:03:43;;;;;;;4.83;3.73;;;14.30;95.20;;;14.76;63.29;98416.38;4952084;28;123947;-78
2022/11/09 07:06:11;;;;;;;6.90;3.93;;;14.30;95.20;;;14.73;63.44;98429.00;4966662;28;114514;-75
2022/11/09 07:08:39;;;;;;;9.00;4.60;;;14.30;95.20;;;14.72;63.52;98438.50;4966777;28;114525;-75
2022/11/09 07:11:10;;;;;;;5.90;3.70;;;14.30;95.20;;;14.73;63.59;98439.31;4957418;28;124074;-75
2022/11/09 07:13:38;;;;;;;6.23;3.90;;;14.20;95.20;;;14.72;63.54;98440.44;4967263;28;124051;-77
2022/11/09 07:16:06;;;;;;;10.93;4.33;;;14.20;95.30;;;14.74;63.70;98446.47;4947741;28;113311;-74
2022/11/09 07:18:33;;;;;;;4.60;3.07;;;14.30;95.40;;;14.74;63.58;98480.66;4975977;28;113969;-76
2022/11/09 07:21:03;;;;;;;4.30;3.10;;;14.30;95.40;;;14.74;63.93;98513.22;4967660;28;124096;-74
2022/11/09 07:23:29;;;;;;;3.80;2.70;;;14.20;95.40;;;14.70;64.20;98520.66;4958855;28;123755;-75
2022/11/09 07:25:58;;;;;;;3.50;2.67;;;14.20;95.60;;;14.62;64.58;98518.78;4971080;28;114287;-76
2022/11/09 07:28:25;;;;;;;7.00;3.00;;;14.10;95.80;;;14.55;64.85;98517.38;4965276;28;114091;-74
2022/11/09 07:30:51;;;;;;;4.23;3.00;;;14.10;96.00;;;14.52;65.15;98508.91;4962920;28;123782;-74
2022/11/09 07:33:19;;;;;;;3.37;2.57;;;14.10;96.00;;;14.50;65.18;98514.00;4957961;28;123876;-77
2022/11/09 07:35:46;;;;;;;3.40;2.17;;;14.10;96.10;;;14.49;65.28;98504.84;4970520;28;115117;-77
2022/11/09 07:38:14;;;;;;;4.00;2.47;;;14.10;96.10;;;14.51;65.30;98496.16;4968166;28;115020;-75
2022/11/09 07:40:43;;;;;;;4.60;2.47;;;14.10;96.20;;;14.54;65.36;98495.50;4969251;28;123451;-74
2022/11/09 07:43:11;;;;;;;3.40;2.40;;;14.10;96.20;;;14.58;65.26;98491.66;4970885;28;124333;-77
2022/11/09 07:45:38;;;;;;;2.93;2.33;;;14.10;96.30;;;14.63;65.36;98490.63;4959117;28;114275;-76
2022/11/09 07:48:08;;;;;;;3.10;2.20;;;14.20;96.40;;;14.68;65.73;98493.19;4955994;28;114350;-76
2022/11/09 07:50:36;;;;;;;4.57;2.90;;;14.20;96.40;;;14.70;65.33;98492.84;4964881;28;123800;-77
2022/11/09 07:53:05;;;;;;;2.43;2.03;;;14.20;96.50;;;14.76;65.45;98483.91;4967167;28;123799;-75
2022/11/09 07:55:33;;;;;;;2.70;2.37;;;14.20;96.50;;;14.80;65.47;98478.44;4963581;28;114281;-76
2022/11/09 07:58:05;;;;;;;3.03;2.20;;;14.30;96.60;;;14.83;65.43;98477.78;4965640;28;114211;-78
2022/11/09 08:00:34;;;;;;;3.93;2.83;;;14.30;96.60;;;14.87;65.42;98475.91;4964384;28;124500;-79
2022/11/09 08:03:03;;;;;;;5.20;2.93;;;14.30;96.60;;;14.91;65.29;98487.13;4966627;28;125124;-75
2022/11/09 08:05:30;;;;;;;4.10;2.47;;;14.40;96.70;;;14.94;65.43;98489.25;4972765;28;114340;-76
2022/11/09 08:07:59;;;;;;;4.33;2.13;;;14.40;96.70;;;14.97;65.41;98491.34;4984951;28;113342;-76
2022/11/09 08:10:28;;;;;;;3.77;2.67;;;14.40;96.80;;;14.99;65.33;98492.59;4984529;28;124763;-76
2022/11/09 08:13:07;;;;;;;3.63;2.20;;;14.40;96.70;;;14.98;65.15;98496.53;4967837;28;123852;-76
2022/11/09 08:15:35;;;;;;;3.27;2.00;;;14.40;96.70;;;14.98;65.39;98502.09;4965909;28;114259;-76
2022/11/09 08:18:05;;;;;;;2.17;1.80;;;14.50;96.80;;;15.00;65.38;98499.78;4966350;28;114072;-75
2022/11/09 08:20:33;;;;;;;2.43;1.70;;;14.50;96.80;;;15.02;65.40;98503.03;5001705;28;124360;-76
2022/11/09 08:22:59;;;;;;;3.23;2.37;;;14.50;96.80;;;15.06;65.42;98491.19;4955626;28;122986;-76
2022/11/09 08:25:26;;;;;;;5.07;1.90;;;14.50;96.80;;;15.07;65.29;98498.38;4969651;28;114966;-76
2022/11/09 08:27:55;;;;;;;2.77;2.10;;;14.50;96.80;;;15.08;65.24;98491.66;4972516;28;115283;-78
2022/11/09 08:30:22;;;;;;;3.77;2.33;;;14.50;96.70;;;15.08;65.07;98481.34;4965734;28;124426;-78
2022/11/09 08:32:49;;;;;;;2.93;2.17;;;14.50;96.70;;;15.10;65.36;98486.53;4976383;28;124025;-79
2022/11/09 08:35:21;;;;;;;4.30;2.93;;;14.60;96.80;;;15.11;65.31;98482.63;4967621;28;114457;-75
2022/11/09 08:37:50;;;;;;;6.13;2.70;;;14.60;96.80;;;15.13;65.11;98485.88;4959900;28;113951;-76
2022/11/09 08:40:23;;;;;;;3.20;2.30;;;14.60;96.70;;;15.14;65.08;98495.81;4966479;28;124717;-78
2022/11/09 08:42:51;;;;;;;3.77;2.60;;;14.60;96.70;;;15.16;65.01;98497.09;4966547;28;123364;-75
2022/11/09 08:45:20;;;;;;;5.93;2.20;;;14.60;96.80;;;15.16;65.02;98491.53;4967738;28;114545;-75
2022/11/09 08:47:47;;;;;;;3.40;2.40;;;14.60;96.80;;;15.16;64.95;98491.53;4969730;28;113824;-75
2022/11/09 08:50:15;;;;;;;3.50;2.00;;;14.60;96.80;;;15.15;65.22;98483.53;4969743;28;124128;-78
2022/11/09 08:52:41;;;;;;;3.77;1.90;;;14.60;96.80;;;15.16;65.21;98485.16;4961758;28;123954;-77
2022/11/09 08:55:08;;;;;;;3.67;2.00;;;15.50;97.20;;;15.16;65.25;98490.72;4970347;28;114487;-78
2022/11/09 08:57:34;;;;;;;3.53;2.23;;;14.60;96.80;;;15.17;65.43;98489.56;5002138;28;114111;-80
2022/11/09 09:00:01;;;;;;;2.80;2.20;;;14.60;96.80;;;15.18;65.41;98486.44;4968796;28;124095;-75
2022/11/09 09:02:27;;;;;;;2.00;1.80;;;14.60;96.90;;;15.20;65.35;98491.63;4972317;28;123963;-75
2022/11/09 09:04:54;;;;;;;3.00;2.10;;;14.60;96.90;;;15.23;65.19;98482.56;4970586;28;114365;-75
2022/11/09 09:07:21;;;;;;;2.17;1.90;;;14.70;97.20;;;15.27;65.22;98474.34;4981664;28;112351;-75
2022/11/09 09:09:47;;;;;;;3.93;1.87;;;14.70;96.90;;;15.29;65.20;98483.97;4960342;28;124367;-73
2022/11/09 09:12:14;;;;;;;2.07;1.57;;;14.70;96.90;;;15.31;65.01;98484.41;4970429;28;123831;-74
2022/11/09 09:14:40;;;;;;;3.57;1.63;;;14.80;96.90;;;15.32;65.08;98483.25;4982003;28;114474;-74
2022/11/09 09:17:07;;;;;;;3.70;2.20;;;14.80;96.90;;;15.34;64.86;98486.50;4962079;28;115052;-76
2022/11/09 09:19:34;;;;;;;2.30;1.63;;;14.80;96.80;;;15.36;65.14;98481.38;4969277;28;125017;-76
2022/11/09 09:22:00;;;;;;;3.80;1.50;;;14.80;96.80;;;15.38;64.95;98481.03;4969782;28;124329;-77
2022/11/09 09:24:27;;;;;;;1.90;1.40;;;14.80;96.80;;;15.41;64.98;98488.69;4972406;28;114579;-76
2022/11/09 09:26:54;;;;;;;1.80;1.50;;;14.90;96.90;;;15.44;65.02;98505.50;4971521;28;113506;-74
2022/11/09 09:29:20;;;;;;;2.47;1.70;;;14.90;96.90;;;15.48;64.87;98511.19;4991061;28;124071;-75
2022/11/09 09:31:47;;;;;;;3.63;1.77;;;14.90;96.90;;;15.52;64.85;98514.06;4973116;28;124079;-77
2022/11/09 09:34:13;;;;;;;2.77;1.80;;;14.90;96.90;;;15.56;64.93;98503.84;4961006;28;114310;-75
2022/11/09 09:36:40;;;;;;;2.60;1.90;;;15.00;96.90;;;15.59;64.80;98508.72;4967356;28;114043;-76
2022/11/09 09:39:06;;;;;;;4.20;1.70;;;15.10;97.20;;;15.62;64.86;98496.88;4969870;28;124004;-75
2022/11/09 09:41:59;;;;;;;2.57;1.50;;;15.00;96.90;;;15.66;64.63;98514.47;4967437;28;123966;-77
2022/11/09 09:44:50;;;;;;;2.27;1.73;;;15.10;96.90;;;15.69;64.79;98505.47;4968494;28;113611;-74
2022/11/09 09:47:59;;;;;;;1.70;1.60;;;14.30;96.60;;;15.68;64.86;98515.78;4962363;28;113820;-76
2022/11/09 09:50:44;;;;;;;3.10;1.40;;;15.10;96.90;;;15.68;64.71;98509.38;4965203;28;124136;-77
2022/11/09 09:53:25;;;;;;;2.43;1.43;;;15.10;96.90;;;15.71;64.88;98500.34;4966185;28;123820;-75
2022/11/09 09:56:02;;;;;;;5.80;1.33;;;15.10;96.90;;;15.75;64.87;98506.03;4966577;28;114377;-77
2022/11/09 09:58:33;;;;;;;1.40;1.20;;;15.20;96.90;;;15.77;64.90;98498.94;4967281;28;113694;-74
2022/11/09 10:01:10;;;;;;;1.97;1.63;;;15.20;96.90;;;15.81;64.82;98502.63;4956714;28;124972;-75
2022/11/09 10:03:36;;;;;;;1.33;1.20;;;15.20;96.90;;;15.85;64.68;98509.13;4964947;28;123653;-76
2022/11/09 10:06:17;;;;;;;1.47;1.30;;;15.30;96.90;;;15.90;64.44;98505.25;4957120;28;115395;-75
2022/11/09 10:09:01;;;;;;;1.80;1.40;;;15.40;96.90;;;15.93;64.62;98509.28;4966629;28;113931;-75
2022/11/09 10:11:59;;;;;;;1.93;1.53;;;15.40;96.90;;;15.94;64.42;98506.16;4964335;28;124259;-75
2022/11/09 10:14:59;;;;;;;2.27;1.50;;;15.40;96.90;;;15.97;64.30;98508.25;4951203;28;122985;-77
2022/11/09 10:17:39;;;;;;;1.43;1.30;;;15.50;96.90;;;16.00;64.58;98507.53;4965905;28;114616;-76
2022/11/09 10:20:43;;;;;;;3.30;1.43;;;15.40;96.90;;;16.02;64.48;98504.41;4979137;28;113105;-74
2022/11/09 10:23:24;;;;;;;2.33;1.73;;;15.50;96.90;;;16.06;64.33;98499.72;4998872;28;123318;-77
2022/11/09 10:26:02;;;;;;;6.00;1.50;;;15.50;96.90;;;16.09;64.31;98496.22;4968202;28;124662;-80